Time;durP1;ratioP1;P1;durP2;ratioP2;P2;SDS_P1;SDS_P2;PMS_P1;PMS_P2;Temp;Humidity;BMP_temperature;BMP_pressure;BME280_temperature;BME280_humidity;BME280_pressure;Samples;Min_cycle;Max_cycle;Signal;HPM_P1;HPM_P2
2022/08/08 00:01:12;;;;;;;0.30;0.30;;;;;;;18.40;63.56;102564.09;1987033;29;20070;-65
2022/08/08 00:02:20;;;;;;;0.30;0.30;;;;;;;18.40;63.42;102562.16;1991560;29;20066;-65
2022/08/08 00:03:44;;;;;;;0.30;0.30;;;;;;;18.36;63.64;102558.50;1994492;29;20054;-65
2022/08/08 00:04:56;;;;;;;0.30;0.30;;;;;;;18.37;63.51;102560.09;1993069;29;20051;-65
2022/08/08 00:06:05;;;;;;;0.30;0.30;;;;;;;18.38;63.50;102566.38;1993986;29;20387;-65
2022/08/08 00:07:17;;;;;;;0.30;0.30;;;;;;;18.36;63.55;102557.72;1992458;29;20050;-65
2022/08/08 00:08:26;;;;;;;0.30;0.30;;;;;;;18.36;63.42;102560.47;1996729;29;20122;-66
2022/08/08 00:09:39;;;;;;;0.38;0.38;;;;;;;18.33;63.37;102563.91;1981871;29;20058;-66
2022/08/08 00:10:52;;;;;;;0.35;0.35;;;;;;;18.32;63.38;102568.56;1990143;29;20058;-66
2022/08/08 00:11:59;;;;;;;0.30;0.30;;;;;;;18.31;63.25;102575.19;1992138;29;20085;-65
2022/08/08 00:13:20;;;;;;;0.28;0.28;;;;;;;18.28;63.02;102566.88;1994914;29;20484;-65
2022/08/08 00:14:49;;;;;;;0.30;0.30;;;;;;;18.23;63.38;102570.69;1992645;29;20098;-65
2022/08/08 00:16:07;;;;;;;0.30;0.30;;;;;;;18.21;63.24;102562.03;1994389;29;20189;-65
2022/08/08 00:17:14;;;;;;;0.30;0.30;;;;;;;18.21;63.23;102567.50;1998914;29;20141;-65
2022/08/08 00:18:34;;;;;;;0.28;0.28;;;;;;;18.16;63.54;102570.47;1991744;29;20062;-65
2022/08/08 00:19:44;;;;;;;0.30;0.30;;;;;;;18.11;63.68;102575.41;1980816;29;20063;-65
2022/08/08 00:20:56;;;;;;;0.30;0.30;;;;;;;18.05;63.72;102572.13;1983213;29;20526;-65
2022/08/08 00:22:04;;;;;;;0.30;0.30;;;;;;;18.03;63.77;102577.13;1994378;29;20121;-65
2022/08/08 00:23:18;;;;;;;0.30;0.30;;;;;;;18.01;63.99;102568.50;1987037;29;20062;-65
2022/08/08 00:24:30;;;;;;;;;;;;;;;17.83;64.82;102575.41;1990254;29;20094;-65
2022/08/08 00:25:37;;;;;;;0.30;0.30;;;;;;;17.86;64.28;102567.31;1994168;29;19933;-65
2022/08/08 00:26:52;;;;;;;0.32;0.32;;;;;;;17.86;64.35;102575.50;1993556;29;20509;-65
2022/08/08 00:27:59;;;;;;;0.30;0.30;;;;;;;17.89;64.02;102576.75;1994270;29;20054;-65
2022/08/08 00:29:11;;;;;;;0.32;0.32;;;;;;;17.87;64.22;102574.34;1994295;29;20085;-66
2022/08/08 00:30:18;;;;;;;0.30;0.30;;;;;;;17.85;64.16;102565.69;1993851;29;20054;-65
2022/08/08 00:31:32;;;;;;;0.30;0.30;;;;;;;17.84;64.28;102561.38;1994149;29;20047;-65
2022/08/08 00:33:04;;;;;;;0.30;0.30;;;;;;;17.79;64.43;102560.84;1978616;29;20444;-65
2022/08/08 00:36:00;;;;;;;0.30;0.30;;;;;;;17.73;64.81;102573.16;1978350;30;20138;-65
2022/08/08 00:37:11;;;;;;;0.30;0.30;;;;;;;17.75;65.04;102565.41;1981145;29;20527;-65
2022/08/08 00:38:46;;;;;;;0.30;0.30;;;;;;;17.70;65.38;102568.38;1993943;29;20451;-66
2022/08/08 00:40:15;;;;;;;0.30;0.30;;;;;;;17.71;65.62;102570.00;1992039;29;20117;-66
2022/08/08 00:41:53;;;;;;;;;;;;;;;17.58;66.26;102563.75;1995482;29;20058;-65
2022/08/08 00:43:44;;;;;;;0.30;0.30;;;;;;;17.64;65.44;102570.59;1987495;29;20696;-65
2022/08/08 00:45:14;;;;;;;0.30;0.30;;;;;;;17.67;65.25;102569.09;1987191;29;20058;-65
2022/08/08 00:47:01;;;;;;;0.20;0.20;;;;;;;17.66;65.76;102572.97;1986633;29;20058;-65
2022/08/08 00:48:48;;;;;;;0.20;0.20;;;;;;;17.70;65.52;102573.84;1980295;29;20055;-65
2022/08/08 00:50:28;;;;;;;0.30;0.30;;;;;;;17.68;65.65;102568.72;1997678;29;20110;-65
2022/08/08 00:52:00;;;;;;;0.30;0.30;;;;;;;17.69;65.92;102564.06;1986017;29;20063;-65
2022/08/08 00:53:11;;;;;;;0.30;0.30;;;;;;;17.74;65.10;102566.56;1990777;29;20097;-65
2022/08/08 00:54:42;;;;;;;0.30;0.30;;;;;;;17.73;65.59;102565.75;1986608;29;20066;-65
2022/08/08 00:56:12;;;;;;;0.30;0.30;;;;;;;17.72;65.98;102566.09;1986796;29;20047;-66
2022/08/08 00:57:54;;;;;;;0.30;0.30;;;;;;;17.74;65.61;102563.84;1975074;30;20070;-65
2022/08/08 00:59:42;;;;;;;0.30;0.30;;;;;;;17.72;65.86;102566.91;1981758;29;20082;-66
2022/08/08 01:01:07;;;;;;;0.30;0.30;;;;;;;17.72;65.76;102566.09;1978094;29;20535;-65
2022/08/08 01:02:50;;;;;;;0.30;0.30;;;;;;;17.74;65.82;102574.75;1981482;29;20480;-66
2022/08/08 01:04:48;;;;;;;0.30;0.30;;;;;;;17.67;66.20;102571.81;1991002;29;20507;-65
2022/08/08 01:06:41;;;;;;;0.30;0.30;;;;;;;17.63;66.19;102568.19;1982958;29;20591;-66
2022/08/08 01:08:26;;;;;;;0.30;0.30;;;;;;;17.57;66.14;102567.63;1984780;29;20053;-65
2022/08/08 01:10:14;;;;;;;0.30;0.30;;;;;;;17.55;66.19;102567.16;1983758;29;20055;-65
2022/08/08 01:12:03;;;;;;;0.30;0.30;;;;;;;17.55;66.10;102569.91;1996076;29;20061;-66
2022/08/08 01:13:50;;;;;;;0.30;0.30;;;;;;;17.48;66.32;102566.97;1992349;29;20050;-65
2022/08/08 01:15:40;;;;;;;0.30;0.30;;;;;;;17.50;66.21;102574.81;1960700;30;20059;-65
2022/08/08 01:17:40;;;;;;;0.30;0.30;;;;;;;17.46;66.64;102577.44;1990237;29;20085;-65
2022/08/08 01:19:52;;;;;;;0.30;0.30;;;;;;;17.40;66.77;102578.00;1989064;29;20086;-65
2022/08/08 01:21:26;;;;;;;0.30;0.30;;;;;;;17.42;66.15;102578.44;1998207;29;20062;-62
2022/08/08 01:23:13;;;;;;;0.30;0.30;;;;;;;17.39;66.43;102579.13;1993019;29;20415;-63
2022/08/08 01:24:52;;;;;;;0.30;0.30;;;;;;;17.39;66.64;102573.69;1989355;29;20054;-63
2022/08/08 01:26:16;;;;;;;0.30;0.30;;;;;;;17.39;66.61;102569.03;1983614;29;20061;-62
2022/08/08 01:27:57;;;;;;;0.30;0.30;;;;;;;17.36;67.16;102566.19;1977835;29;20058;-63
2022/08/08 01:29:36;;;;;;;0.40;0.40;;;;;;;17.34;67.17;102568.44;1979545;29;20158;-62
2022/08/08 01:31:30;;;;;;;0.40;0.40;;;;;;;17.33;67.52;102566.88;1989593;29;20051;-63
2022/08/08 01:33:31;;;;;;;0.40;0.40;;;;;;;17.29;68.19;102565.94;1990402;29;20079;-62
2022/08/08 01:35:15;;;;;;;0.40;0.40;;;;;;;17.25;67.84;102562.31;1990296;29;20464;-62
2022/08/08 01:37:12;;;;;;;0.40;0.40;;;;;;;17.20;68.37;102566.09;1989927;29;20050;-62
2022/08/08 01:38:55;;;;;;;0.30;0.30;;;;;;;17.20;68.27;102555.19;1979720;29;20062;-62
2022/08/08 01:40:11;;;;;;;0.30;0.30;;;;;;;17.24;68.01;102555.25;1978774;29;20054;-63
2022/08/08 01:41:26;;;;;;;0.30;0.30;;;;;;;17.25;68.19;102560.38;1976657;29;20208;-64
2022/08/08 01:42:49;;;;;;;0.30;0.30;;;;;;;17.26;68.28;102564.72;1978103;29;20058;-64
2022/08/08 01:44:05;;;;;;;0.40;0.40;;;;;;;17.27;68.29;102571.75;1984651;29;20061;-63
2022/08/08 01:45:31;;;;;;;0.40;0.40;;;;;;;17.28;68.58;102569.84;1981834;29;20135;-63
2022/08/08 01:46:45;;;;;;;0.40;0.40;;;;;;;17.28;68.00;102569.84;1982559;29;20095;-62
2022/08/08 01:48:02;;;;;;;0.40;0.40;;;;;;;17.28;68.28;102567.09;1990306;29;20136;-63
2022/08/08 01:49:43;;;;;;;0.40;0.40;;;;;;;17.27;68.13;102563.56;1989785;29;20143;-64
2022/08/08 01:51:02;;;;;;;0.40;0.40;;;;;;;17.24;68.41;102564.25;1982304;29;20582;-64
2022/08/08 01:52:41;;;;;;;0.38;0.38;;;;;;;17.25;68.18;102563.09;1979681;29;20085;-64
2022/08/08 01:54:13;;;;;;;0.40;0.40;;;;;;;17.26;68.36;102563.91;1987524;29;20051;-63
2022/08/08 01:55:46;;;;;;;0.40;0.40;;;;;;;17.23;68.60;102561.88;1990276;29;20531;-63
2022/08/08 01:57:19;;;;;;;0.30;0.30;;;;;;;17.23;68.28;102559.94;1981508;29;20143;-64
2022/08/08 01:58:41;;;;;;;0.30;0.30;;;;;;;17.20;68.85;102563.38;1983872;29;20090;-63
2022/08/08 02:00:14;;;;;;;0.20;0.20;;;;;;;17.16;69.04;102559.72;1990123;29;20103;-64
2022/08/08 02:01:28;;;;;;;0.40;0.40;;;;;;;17.18;68.50;102562.91;1989782;29;20142;-63
2022/08/08 02:03:15;;;;;;;0.40;0.40;;;;;;;17.14;69.21;102561.97;1979486;29;20123;-64
2022/08/08 02:04:46;;;;;;;0.32;0.32;;;;;;;17.19;68.82;102566.41;1987521;29;20515;-64
2022/08/08 02:06:10;;;;;;;0.30;0.30;;;;;;;17.18;68.73;102573.00;1981440;29;20061;-64
2022/08/08 02:07:49;;;;;;;0.30;0.30;;;;;;;17.18;68.70;102573.00;1986483;29;20062;-63
2022/08/08 02:09:00;;;;;;;0.40;0.40;;;;;;;17.18;69.24;102570.28;1983256;29;20084;-63
2022/08/08 02:10:34;;;;;;;0.40;0.40;;;;;;;17.15;69.39;102570.97;1983493;29;20593;-64
2022/08/08 02:11:48;;;;;;;0.40;0.40;;;;;;;17.17;69.08;102576.91;1981921;29;20062;-62
2022/08/08 02:13:15;;;;;;;0.40;0.40;;;;;;;17.20;68.97;102576.22;1992072;29;20058;-63
2022/08/08 02:14:41;;;;;;;0.30;0.30;;;;;;;17.19;69.38;102575.41;1996461;29;20057;-63
2022/08/08 02:16:05;;;;;;;0.30;0.30;;;;;;;17.25;68.85;102584.94;1989416;29;20084;-64
2022/08/08 02:17:15;;;;;;;0.30;0.30;;;;;;;17.27;69.51;102581.88;1989182;29;20664;-62
2022/08/08 02:18:32;;;;;;;0.30;0.30;;;;;;;17.29;69.03;102579.59;1988965;29;20050;-62
2022/08/08 02:19:43;;;;;;;0.38;0.38;;;;;;;17.32;69.08;102576.19;1981958;29;20511;-62
2022/08/08 02:22:47;;;;;;;0.30;0.30;;;;;;;17.30;69.31;102570.28;1981417;29;20111;-64
2022/08/08 02:24:13;;;;;;;0.40;0.40;;;;;;;17.31;69.16;102577.31;1976924;29;20051;-63
2022/08/08 02:25:24;;;;;;;0.32;0.32;;;;;;;17.32;68.95;102578.91;1977164;29;20146;-63
2022/08/08 02:26:51;;;;;;;0.30;0.30;;;;;;;17.33;69.18;102575.06;1985422;29;20058;-64
2022/08/08 02:28:03;;;;;;;0.30;0.30;;;;;;;17.34;68.65;102579.38;1989219;29;20089;-63
2022/08/08 02:29:24;;;;;;;0.30;0.30;;;;;;;17.33;69.05;102580.53;1981982;29;20080;-63
2022/08/08 02:30:48;;;;;;;0.30;0.30;;;;;;;17.32;69.19;102576.97;1984996;29;20499;-64
2022/08/08 02:32:25;;;;;;;0.28;0.28;;;;;;;17.34;69.37;102579.38;1989383;29;20549;-63
2022/08/08 02:33:44;;;;;;;0.30;0.30;;;;;;;17.35;69.56;102572.75;1989244;29;20066;-64
2022/08/08 02:35:37;;;;;;;0.20;0.20;;;;;;;17.31;69.33;102572.69;1990091;29;20058;-63
2022/08/08 02:37:09;;;;;;;0.30;0.30;;;;;;;17.30;69.38;102570.28;1989187;29;20054;-65
2022/08/08 02:39:07;;;;;;;0.30;0.30;;;;;;;17.23;69.89;102570.06;1993600;29;20043;-63
2022/08/08 02:40:41;;;;;;;0.30;0.30;;;;;;;17.26;69.73;102575.63;1989363;29;20112;-64
2022/08/08 02:42:25;;;;;;;0.22;0.22;;;;;;;17.25;69.61;102573.25;1990506;29;20397;-63
2022/08/08 02:44:10;;;;;;;0.30;0.30;;;;;;;17.23;69.91;102575.53;1989680;29;20125;-63
2022/08/08 02:45:51;;;;;;;0.20;0.20;;;;;;;17.23;70.09;102570.06;1987722;29;20082;-64
2022/08/08 02:48:07;;;;;;;0.20;0.20;;;;;;;17.19;70.15;102566.41;1992560;29;20054;-64
2022/08/08 02:49:46;;;;;;;0.30;0.30;;;;;;;17.16;70.68;102569.81;1996660;29;20059;-63
2022/08/08 02:51:33;;;;;;;0.20;0.20;;;;;;;17.16;70.18;102572.56;1997305;29;20079;-62
2022/08/08 02:53:15;;;;;;;;;;;;;;;17.02;70.53;102563.94;1990893;29;20529;-64
2022/08/08 02:54:43;;;;;;;0.30;0.30;;;;;;;17.11;70.37;102561.91;1990364;29;20386;-63
2022/08/08 02:56:27;;;;;;;0.22;0.22;;;;;;;17.09;70.47;102572.34;1955398;30;20535;-63
2022/08/08 02:58:15;;;;;;;0.30;0.30;;;;;;;17.03;70.69;102574.50;1979667;29;20065;-63
2022/08/08 03:00:05;;;;;;;0.30;0.30;;;;;;;16.93;71.37;102571.44;1947584;30;20096;-63
2022/08/08 03:02:00;;;;;;;0.20;0.20;;;;;;;16.84;70.98;102574.28;1984617;29;20058;-63
2022/08/08 03:03:57;;;;;;;0.20;0.20;;;;;;;16.78;71.43;102574.81;1982627;29;20058;-63
2022/08/08 03:05:55;;;;;;;0.30;0.30;;;;;;;16.74;71.66;102579.38;1966554;30;20508;-63
2022/08/08 03:07:35;;;;;;;0.30;0.30;;;;;;;16.72;72.13;102570.75;1962891;30;20063;-63
2022/08/08 03:09:49;;;;;;;0.20;0.20;;;;;;;16.68;71.49;102575.28;1951585;30;20541;-63
2022/08/08 03:11:35;;;;;;;0.30;0.30;;;;;;;16.61;72.52;102577.78;1955528;30;20064;-65
2022/08/08 03:13:33;;;;;;;0.20;0.20;;;;;;;16.60;72.00;102578.91;1990007;29;20067;-64
2022/08/08 03:15:11;;;;;;;0.30;0.30;;;;;;;16.64;71.73;102586.09;1988858;29;20480;-63
2022/08/08 03:16:45;;;;;;;0.30;0.30;;;;;;;16.66;72.16;102583.00;1989417;29;20070;-63
2022/08/08 03:17:57;;;;;;;0.30;0.30;;;;;;;16.68;71.88;102586.97;1982940;29;20059;-65
2022/08/08 03:19:37;;;;;;;0.20;0.20;;;;;;;16.65;72.18;102586.88;1985369;29;20625;-63
2022/08/08 03:20:52;;;;;;;0.30;0.30;;;;;;;16.64;72.37;102585.28;1981734;29;20135;-63
2022/08/08 03:21:59;;;;;;;0.30;0.30;;;;;;;16.67;72.21;102579.94;1975394;29;20055;-62
2022/08/08 03:23:04;;;;;;;0.30;0.30;;;;;;;16.74;71.76;102584.84;1982544;29;20507;-63
2022/08/08 03:24:08;;;;;;;0.30;0.30;;;;;;;16.78;71.85;102583.81;1990248;29;20065;-63
2022/08/08 03:25:12;;;;;;;0.30;0.30;;;;;;;16.82;71.69;102582.03;1991329;29;20690;-64
2022/08/08 03:26:30;;;;;;;0.30;0.30;;;;;;;16.83;71.49;102583.59;1983856;29;20145;-63
2022/08/08 03:27:50;;;;;;;0.30;0.30;;;;;;;16.86;71.66;102588.38;1977886;29;20524;-62
2022/08/08 03:29:04;;;;;;;0.30;0.30;;;;;;;16.90;71.55;102583.03;1977599;29;20576;-63
2022/08/08 03:30:24;;;;;;;0.30;0.30;;;;;;;16.91;71.73;102588.16;1986012;29;20077;-64
2022/08/08 03:33:17;;;;;;;0.30;0.30;;;;;;;16.93;71.38;102583.16;1988047;29;20050;-63
2022/08/08 03:34:43;;;;;;;0.30;0.30;;;;;;;16.98;71.31;102593.03;1984122;29;20411;-62
2022/08/08 03:35:49;;;;;;;0.30;0.30;;;;;;;17.03;71.19;102587.38;1977359;29;20634;-62
2022/08/08 03:36:54;;;;;;;0.30;0.30;;;;;;;17.06;71.26;102592.13;1978302;29;20051;-62
2022/08/08 03:37:59;;;;;;;0.20;0.20;;;;;;;17.09;70.91;102591.47;1984500;29;20061;-63
2022/08/08 03:39:24;;;;;;;0.30;0.30;;;;;;;17.07;70.82;102582.81;1984242;29;20179;-63
2022/08/08 03:40:26;;;;;;;0.30;0.30;;;;;;;17.12;70.99;102593.50;1984362;29;20566;-63
2022/08/08 03:41:36;;;;;;;0.30;0.30;;;;;;;17.12;71.14;102588.84;1991517;29;20415;-63
2022/08/08 03:43:07;;;;;;;0.30;0.30;;;;;;;17.13;71.07;102592.34;1990700;29;20404;-62
2022/08/08 03:44:19;;;;;;;0.30;0.30;;;;;;;17.11;71.12;102589.19;1990861;29;20057;-63
2022/08/08 03:45:28;;;;;;;0.30;0.30;;;;;;;17.12;71.00;102585.31;1983020;29;20055;-62
2022/08/08 03:46:51;;;;;;;0.30;0.30;;;;;;;17.07;71.36;102588.25;1983613;29;20100;-64
2022/08/08 03:47:58;;;;;;;0.30;0.30;;;;;;;17.08;71.32;102592.56;1983396;29;20050;-63
2022/08/08 03:49:04;;;;;;;0.25;0.25;;;;;;;17.09;71.13;102594.19;1983564;29;20096;-63
2022/08/08 03:50:30;;;;;;;0.22;0.22;;;;;;;17.06;71.11;102586.69;1983564;29;20134;-64
2022/08/08 03:51:35;;;;;;;0.22;0.22;;;;;;;17.08;70.84;102590.66;1983547;29;20550;-63
2022/08/08 03:52:55;;;;;;;0.30;0.30;;;;;;;17.10;70.94;102595.75;1991334;29;20114;-63
2022/08/08 03:54:00;;;;;;;0.20;0.20;;;;;;;17.12;70.85;102596.22;1990798;29;20085;-64
2022/08/08 03:55:11;;;;;;;0.30;0.30;;;;;;;17.13;70.91;102595.88;1989632;29;20058;-62
2022/08/08 03:56:34;;;;;;;0.30;0.30;;;;;;;17.13;71.12;102600.53;1982332;29;20127;-64
2022/08/08 03:57:42;;;;;;;0.30;0.30;;;;;;;17.16;71.08;102600.66;1983551;29;20432;-63
2022/08/08 03:59:05;;;;;;;0.40;0.40;;;;;;;17.17;70.88;102598.72;1982710;29;20057;-62
2022/08/08 04:00:26;;;;;;;0.40;0.40;;;;;;;17.15;70.83;102601.00;1985762;29;20492;-62
2022/08/08 04:01:39;;;;;;;0.40;0.40;;;;;;;17.20;70.84;102598.84;1996593;29;20058;-62
2022/08/08 04:03:03;;;;;;;0.40;0.40;;;;;;;17.17;71.10;102598.72;1991026;29;20078;-64
2022/08/08 04:04:19;;;;;;;0.50;0.50;;;;;;;17.19;70.65;102604.63;1991324;29;20054;-62
2022/08/08 04:05:25;;;;;;;0.50;0.50;;;;;;;17.20;70.50;102603.50;1989584;29;20415;-62
2022/08/08 04:06:35;;;;;;;0.40;0.40;;;;;;;17.15;71.10;102601.00;1996443;29;20098;-63
2022/08/08 04:07:38;;;;;;;0.50;0.50;;;;;;;17.20;70.64;102608.97;1990138;29;20050;-62
2022/08/08 04:08:42;;;;;;;0.50;0.50;;;;;;;17.18;71.12;102600.31;1990478;29;20643;-64
2022/08/08 04:09:55;;;;;;;0.45;0.45;;;;;;;17.18;70.90;102608.50;1984416;29;20062;-63
2022/08/08 04:11:10;;;;;;;0.50;0.50;;;;;;;17.18;70.96;102613.97;1985450;29;20066;-63
2022/08/08 04:12:24;;;;;;;0.50;0.50;;;;;;;17.12;71.24;102618.06;1984135;29;20479;-64
2022/08/08 04:13:28;;;;;;;0.40;0.40;;;;;;;17.13;71.37;102620.44;1983040;29;20590;-63
2022/08/08 04:14:51;;;;;;;0.50;0.50;;;;;;;17.12;71.38;102618.06;1989857;29;20057;-64
2022/08/08 04:15:57;;;;;;;0.40;0.40;;;;;;;17.14;71.51;102615.78;1990396;29;20554;-62
2022/08/08 04:17:10;;;;;;;0.50;0.50;;;;;;;17.16;71.04;102618.97;1976560;30;20587;-64
2022/08/08 04:18:33;;;;;;;0.50;0.50;;;;;;;17.15;71.24;102617.38;1980854;29;20545;-65
2022/08/08 04:19:46;;;;;;;0.40;0.40;;;;;;;17.17;71.25;102615.09;1989769;29;20073;-65
2022/08/08 04:20:51;;;;;;;0.40;0.40;;;;;;;17.20;71.09;102617.16;1982962;29;20062;-62
2022/08/08 04:21:53;;;;;;;0.50;0.50;;;;;;;17.21;71.34;102616.00;1975302;29;20167;-63
2022/08/08 04:22:57;;;;;;;0.47;0.47;;;;;;;17.22;71.18;102612.16;1975547;29;20093;-63
2022/08/08 04:24:05;;;;;;;0.40;0.40;;;;;;;17.21;71.20;102621.47;1983407;29;20156;-63
2022/08/08 04:25:21;;;;;;;0.50;0.50;;;;;;;17.20;71.30;102614.41;1990262;29;20054;-63
2022/08/08 04:26:33;;;;;;;0.43;0.43;;;;;;;17.22;71.15;102612.94;1989900;29;20059;-63
2022/08/08 04:27:47;;;;;;;0.50;0.50;;;;;;;17.21;71.04;102611.34;1989913;29;20065;-66
2022/08/08 04:29:10;;;;;;;0.50;0.50;;;;;;;17.21;70.87;102611.34;1982296;29;20051;-64
2022/08/08 04:30:17;;;;;;;0.60;0.60;;;;;;;17.25;71.01;102611.47;1975907;29;20113;-62
2022/08/08 04:31:24;;;;;;;0.50;0.50;;;;;;;17.23;71.00;102611.81;1976480;29;20487;-63
2022/08/08 04:32:47;;;;;;;0.50;0.50;;;;;;;17.22;71.34;102610.19;1985649;29;20110;-62
2022/08/08 04:33:54;;;;;;;0.50;0.50;;;;;;;17.23;71.26;102611.00;1982904;29;20078;-63
2022/08/08 04:34:57;;;;;;;0.60;0.60;;;;;;;17.24;71.14;102610.66;1982327;29;20057;-63
2022/08/08 04:36:05;;;;;;;0.50;0.50;;;;;;;17.24;71.19;102610.66;1982387;29;20097;-63
2022/08/08 04:37:08;;;;;;;0.50;0.50;;;;;;;17.26;71.32;102613.03;1977686;29;20091;-63
2022/08/08 04:38:13;;;;;;;0.47;0.47;;;;;;;17.24;71.45;102604.41;1985650;29;20059;-63
2022/08/08 04:39:24;;;;;;;0.50;0.50;;;;;;;17.20;71.80;102611.69;1989823;29;20057;-64
2022/08/08 04:40:47;;;;;;;0.50;0.50;;;;;;;17.17;71.71;102615.09;1990574;29;20090;-63
2022/08/08 04:41:57;;;;;;;;;;;;;;;16.94;72.35;102606.56;1981769;29;20062;-64
2022/08/08 04:43:00;;;;;;;0.50;0.50;;;;;;;17.01;72.17;102606.00;1981394;29;19929;-64
2022/08/08 04:44:13;;;;;;;0.60;0.60;;;;;;;17.03;72.18;102612.69;1990571;29;20051;-64
2022/08/08 04:45:18;;;;;;;0.60;0.60;;;;;;;17.06;72.14;102609.28;1982426;29;20050;-63
2022/08/08 04:46:22;;;;;;;0.60;0.60;;;;;;;17.07;71.83;102604.63;1975934;29;20139;-63
2022/08/08 04:47:27;;;;;;;0.50;0.50;;;;;;;17.10;71.63;102615.69;1983373;29;20055;-65
2022/08/08 04:48:32;;;;;;;0.50;0.50;;;;;;;17.07;72.25;102604.63;1983081;29;20050;-64
2022/08/08 04:49:35;;;;;;;0.57;0.57;;;;;;;17.07;72.45;102612.81;1982632;29;20058;-64
2022/08/08 04:50:58;;;;;;;0.52;0.52;;;;;;;17.02;72.58;102613.03;1982749;29;20516;-63
2022/08/08 04:52:05;;;;;;;0.60;0.60;;;;;;;17.00;72.74;102612.63;1984045;29;20058;-63
2022/08/08 04:53:08;;;;;;;0.60;0.60;;;;;;;16.97;72.84;102611.34;1989517;29;20530;-64
2022/08/08 04:54:33;;;;;;;0.60;0.60;;;;;;;16.89;73.19;102614.16;1983653;29;20067;-63
2022/08/08 04:55:43;;;;;;;0.50;0.50;;;;;;;16.85;73.35;102613.28;1976757;29;20447;-63
2022/08/08 04:57:01;;;;;;;0.60;0.60;;;;;;;16.83;73.21;102619.06;1977111;29;20836;-62
2022/08/08 04:58:03;;;;;;;0.50;0.50;;;;;;;16.82;73.42;102619.41;1983669;29;20055;-64
2022/08/08 04:59:13;;;;;;;0.50;0.50;;;;;;;16.79;73.82;102609.19;1985367;29;20093;-63
2022/08/08 05:00:18;;;;;;;0.60;0.60;;;;;;;16.75;73.78;102609.06;1982462;29;20051;-63
2022/08/08 05:01:24;;;;;;;0.50;0.50;;;;;;;16.79;73.60;102617.34;1983239;29;20491;-64
2022/08/08 05:02:36;;;;;;;0.60;0.60;;;;;;;16.75;73.53;102619.97;1982706;29;20057;-63
2022/08/08 05:03:44;;;;;;;0.50;0.50;;;;;;;16.76;73.98;102613.34;1983428;29;20046;-64
2022/08/08 05:05:11;;;;;;;0.60;0.60;;;;;;;16.75;73.82;102614.50;1981922;29;20081;-63
2022/08/08 05:06:21;;;;;;;0.50;0.50;;;;;;;16.77;73.99;102616.91;1983323;29;20062;-63
2022/08/08 05:07:29;;;;;;;0.60;0.60;;;;;;;16.80;73.59;102611.56;1984027;29;20533;-62
2022/08/08 05:08:47;;;;;;;0.60;0.60;;;;;;;16.78;73.74;102611.09;1991037;29;20058;-65
2022/08/08 05:09:54;;;;;;;0.60;0.60;;;;;;;16.79;73.90;102620.09;1984288;29;20126;-62
2022/08/08 05:10:58;;;;;;;0.50;0.50;;;;;;;16.83;73.83;102615.53;1983271;29;20142;-63
2022/08/08 05:12:06;;;;;;;0.50;0.50;;;;;;;16.86;73.32;102621.09;1991598;29;20085;-63
2022/08/08 05:13:11;;;;;;;0.60;0.60;;;;;;;16.85;73.84;102626.91;1996125;29;20518;-63
2022/08/08 05:14:20;;;;;;;0.50;0.50;;;;;;;16.87;73.75;102627.38;1982621;29;20044;-64
2022/08/08 05:15:29;;;;;;;0.60;0.60;;;;;;;16.85;73.80;102622.25;1976123;29;20051;-62
2022/08/08 05:16:52;;;;;;;0.50;0.50;;;;;;;16.87;73.64;102630.88;1986551;29;20747;-63
2022/08/08 05:18:06;;;;;;;0.60;0.60;;;;;;;16.89;73.77;102625.09;1975625;29;20058;-62
2022/08/08 05:19:11;;;;;;;0.60;0.60;;;;;;;16.95;73.34;102634.66;1971573;29;20063;-62
2022/08/08 05:20:34;;;;;;;0.60;0.60;;;;;;;16.94;73.39;102631.13;1985522;29;20047;-63
2022/08/08 05:21:54;;;;;;;0.50;0.50;;;;;;;16.99;73.50;102641.03;1985482;29;20876;-64
2022/08/08 05:23:04;;;;;;;0.50;0.50;;;;;;;17.03;73.11;102629.06;1985991;29;20090;-64
2022/08/08 05:24:08;;;;;;;0.50;0.50;;;;;;;17.11;72.82;102643.78;1983618;29;20059;-62
2022/08/08 05:25:13;;;;;;;0.50;0.50;;;;;;;17.14;73.28;102637.63;1984065;29;20065;-64
2022/08/08 05:26:16;;;;;;;0.50;0.50;;;;;;;17.18;73.00;102639.34;1982073;29;20051;-63
2022/08/08 05:27:23;;;;;;;0.50;0.50;;;;;;;17.24;72.90;102646.16;1976207;29;20423;-62
2022/08/08 05:28:28;;;;;;;0.50;0.50;;;;;;;17.27;72.87;102642.72;1976893;29;20062;-63
2022/08/08 05:29:51;;;;;;;0.50;0.50;;;;;;;17.28;72.84;102640.81;1978914;29;20134;-63
2022/08/08 05:31:00;;;;;;;0.60;0.60;;;;;;;17.32;72.76;102641.69;1990260;29;20487;-64
2022/08/08 05:32:21;;;;;;;0.50;0.50;;;;;;;17.37;73.16;102642.28;1981821;29;20051;-62
2022/08/08 05:33:29;;;;;;;0.50;0.50;;;;;;;17.38;73.07;102643.88;1976178;29;20587;-62
2022/08/08 05:34:51;;;;;;;;;;;;;;;17.20;73.10;102649.91;1985976;29;20508;-62
2022/08/08 05:36:00;;;;;;;0.50;0.50;;;;;;;17.37;73.02;102647.75;1981766;29;19928;-63
2022/08/08 05:37:04;;;;;;;0.50;0.50;;;;;;;17.46;72.99;102650.38;1982440;29;20059;-62
2022/08/08 05:38:22;;;;;;;0.50;0.50;;;;;;;17.51;73.02;102648.22;1989915;29;20058;-63
2022/08/08 05:39:44;;;;;;;0.50;0.50;;;;;;;17.60;72.90;102648.09;1990507;29;20053;-63
2022/08/08 05:40:52;;;;;;;0.55;0.55;;;;;;;17.71;73.01;102641.03;1989995;29;20066;-62
2022/08/08 05:42:00;;;;;;;0.50;0.50;;;;;;;17.76;73.00;102648.97;1990132;29;20175;-63
2022/08/08 05:43:09;;;;;;;0.50;0.50;;;;;;;17.83;72.29;102644.53;1989288;29;20523;-62
2022/08/08 05:44:47;;;;;;;0.50;0.50;;;;;;;17.81;71.95;102652.25;1981713;29;20058;-63
2022/08/08 05:45:56;;;;;;;0.43;0.43;;;;;;;17.88;71.92;102648.94;1983854;29;20078;-64
2022/08/08 05:47:10;;;;;;;0.50;0.50;;;;;;;17.89;71.91;102651.34;1973773;30;20123;-63
2022/08/08 05:48:16;;;;;;;0.50;0.50;;;;;;;17.92;71.14;102647.91;1968792;29;20164;-62
2022/08/08 05:49:31;;;;;;;0.50;0.50;;;;;;;17.92;71.30;102653.38;1976638;29;20066;-64
2022/08/08 05:50:40;;;;;;;0.60;0.60;;;;;;;17.93;71.11;102649.47;1969741;30;20162;-63
2022/08/08 05:51:46;;;;;;;0.50;0.50;;;;;;;18.01;71.48;102655.97;1975433;29;20063;-62
2022/08/08 05:52:55;;;;;;;0.50;0.50;;;;;;;18.00;71.38;102654.38;1989463;29;20124;-63
2022/08/08 05:54:19;;;;;;;0.50;0.50;;;;;;;18.08;71.44;102655.34;1989931;29;20051;-63
2022/08/08 05:55:44;;;;;;;0.50;0.50;;;;;;;18.17;71.73;102651.34;1982809;29;20557;-65
2022/08/08 05:57:14;;;;;;;0.50;0.50;;;;;;;18.26;71.50;102649.28;1984930;29;20599;-63
2022/08/08 05:58:18;;;;;;;;;;;;;;;18.03;71.74;102652.88;1989297;29;20066;-63
2022/08/08 05:59:24;;;;;;;0.50;0.50;;;;;;;18.31;71.98;102648.22;1989658;29;19935;-63
2022/08/08 06:00:58;;;;;;;0.45;0.45;;;;;;;18.42;71.40;102650.13;1989772;29;20682;-65
2022/08/08 06:02:02;;;;;;;0.50;0.50;;;;;;;18.57;71.48;102652.09;1990262;29;20058;-63
2022/08/08 06:03:13;;;;;;;0.40;0.40;;;;;;;18.66;70.44;102649.97;1982712;29;20405;-63
2022/08/08 06:04:31;;;;;;;0.50;0.50;;;;;;;18.66;70.48;102652.72;1989608;29;20133;-64
2022/08/08 06:05:44;;;;;;;0.40;0.40;;;;;;;18.78;70.24;102660.88;1989540;29;20129;-64
2022/08/08 06:06:55;;;;;;;0.40;0.40;;;;;;;18.84;70.00;102659.47;1990115;29;20063;-63
2022/08/08 06:08:03;;;;;;;0.47;0.47;;;;;;;18.91;69.90;102662.41;1984156;29;20504;-64
2022/08/08 06:09:31;;;;;;;0.50;0.50;;;;;;;18.98;69.98;102657.06;1990281;29;20058;-64
2022/08/08 06:10:56;;;;;;;0.40;0.40;;;;;;;19.05;69.91;102656.47;1989631;29;20476;-65
2022/08/08 06:12:01;;;;;;;0.40;0.40;;;;;;;19.15;69.58;102662.19;1990007;29;20058;-64
2022/08/08 06:13:06;;;;;;;0.40;0.40;;;;;;;19.27;69.28;102664.84;1982291;29;20436;-64
2022/08/08 06:14:12;;;;;;;0.40;0.40;;;;;;;19.34;69.08;102669.72;1982225;29;20054;-64
2022/08/08 06:15:18;;;;;;;0.40;0.40;;;;;;;19.30;69.08;102658.69;1982760;29;20104;-63
2022/08/08 06:16:35;;;;;;;0.40;0.40;;;;;;;19.41;68.77;102669.13;1976595;29;20063;-65
2022/08/08 06:17:49;;;;;;;0.50;0.50;;;;;;;19.45;68.91;102661.75;1988135;29;20535;-63
2022/08/08 06:19:15;;;;;;;0.40;0.40;;;;;;;19.49;68.44;102671.63;1990557;29;20097;-64
2022/08/08 06:20:20;;;;;;;0.40;0.40;;;;;;;19.52;68.41;102665.44;1989409;29;20095;-65
2022/08/08 06:21:26;;;;;;;0.50;0.50;;;;;;;19.64;67.86;102670.03;1989666;29;20896;-64
2022/08/08 06:22:50;;;;;;;0.40;0.40;;;;;;;19.58;67.52;102671.47;1996992;29;20132;-64